DCA weather

Ronald Reagan Washington National Airport
Washington, District of Columbia, United States

Public forecast

Using degrees Fahrenheit for public forecast. Weather courtesy of forecast.io.

METAR (pilot weather report)

Retrieved 2018/06/18 13:52 UTC (1 hour ago):

KDCA 181352Z 17006KT 10SM BKN250 28/22 A3005 RMK AO2 SLP175 T02780217

TAF (pilot weather forecast)

Forecast is more than 6 hours old.

Retrieved 2018/06/18 06:39 UTC (8 hours ago):

TAF KDCA 180536Z 1806/1912 VRB03KT P6SM SCT250 FM181600 21007KT P6SM SCT060 FM190800 27005KT P6SM SCT250 FM191100 30007KT P6SM BKN100